createdAt,value
2022-10-03T00:00:16.741Z,3.15
2022-10-03T00:01:43.325Z,3.30
2022-10-03T00:03:09.386Z,3.05
2022-10-03T00:04:19.837Z,3.08
2022-10-03T00:05:56.217Z,3.60
2022-10-03T00:07:16.695Z,3.30
2022-10-03T00:08:36.577Z,2.72
2022-10-03T00:10:07.851Z,2.75
2022-10-03T00:11:32.361Z,3.10
2022-10-03T00:12:58.737Z,3.53
2022-10-03T00:14:17.126Z,3.22
2022-10-03T00:15:28.381Z,3.20
2022-10-03T00:16:54.287Z,3.53
2022-10-03T00:18:14.246Z,3.13
2022-10-03T00:19:40.713Z,3.38
2022-10-03T00:21:19.736Z,3.00
2022-10-03T00:22:43.814Z,2.92
2022-10-03T00:24:17.132Z,2.85
2022-10-03T00:25:57.049Z,3.83
2022-10-03T00:27:19.171Z,3.53
2022-10-03T00:28:49.690Z,2.55
2022-10-03T00:30:10.433Z,3.25
2022-10-03T00:31:24.812Z,2.70
2022-10-03T00:32:35.125Z,3.15
2022-10-03T00:34:14.302Z,2.88
2022-10-03T00:35:39.218Z,3.72
2022-10-03T00:36:45.852Z,2.17
2022-10-03T00:38:22.396Z,2.50
2022-10-03T00:39:50.282Z,3.53
2022-10-03T00:41:04.227Z,2.75
2022-10-03T00:42:36.832Z,2.75
2022-10-03T00:44:16.643Z,2.28
2022-10-03T00:45:59.385Z,2.85
2022-10-03T00:47:42.335Z,2.67
2022-10-03T00:48:49.564Z,3.60
2022-10-03T00:50:17.811Z,3.70
2022-10-03T00:51:44.044Z,3.67
2022-10-03T00:53:16.122Z,2.83
2022-10-03T00:54:55.036Z,2.47
2022-10-03T00:56:25.092Z,2.90
2022-10-03T00:57:57.404Z,3.10
2022-10-03T00:59:14.292Z,3.45
2022-10-03T01:00:30.247Z,3.25
2022-10-03T01:01:37.968Z,3.78
2022-10-03T01:02:39.714Z,3.80
2022-10-03T01:03:58.481Z,3.17
2022-10-03T01:05:36.037Z,3.83
2022-10-03T01:06:47.342Z,2.95
2022-10-03T01:08:25.597Z,3.33
2022-10-03T01:09:52.087Z,3.20
2022-10-03T01:11:18.436Z,3.53
2022-10-03T01:12:29.056Z,2.83
2022-10-03T01:13:49.148Z,3.10
2022-10-03T01:15:19.213Z,2.75
2022-10-03T01:16:54.086Z,3.03
2022-10-03T01:18:33.819Z,3.95
2022-10-03T01:20:07.881Z,2.95
2022-10-03T01:21:17.580Z,3.65
2022-10-03T01:22:56.254Z,3.67
2022-10-03T01:24:20.754Z,3.55
2022-10-03T01:25:53.251Z,3.25
2022-10-03T01:26:58.665Z,3.10
2022-10-03T01:28:37.851Z,2.60
2022-10-03T01:30:19.171Z,3.85
2022-10-03T01:31:29.104Z,4.00
2022-10-03T01:32:34.884Z,3.05
2022-10-03T01:33:57.215Z,3.72
2022-10-03T01:35:10.695Z,3.25
2022-10-03T01:36:42.167Z,3.83
2022-10-03T01:38:04.359Z,3.00
2022-10-03T01:39:32.187Z,3.17
2022-10-03T01:40:43.629Z,3.90
2022-10-03T01:42:14.314Z,4.00
2022-10-03T01:43:22.109Z,3.55
2022-10-03T01:44:41.024Z,3.55
2022-10-03T01:46:08.832Z,3.90
2022-10-03T01:47:17.228Z,3.65
2022-10-03T01:48:33.848Z,4.57
2022-10-03T01:50:02.504Z,3.75
2022-10-03T01:51:28.206Z,4.60
2022-10-03T01:53:04.476Z,3.70
2022-10-03T01:54:29.487Z,3.63
2022-10-03T01:55:52.878Z,4.22
2022-10-03T01:57:01.651Z,3.90
2022-10-03T01:58:13.069Z,3.80
2022-10-03T01:59:22.116Z,3.92
2022-10-03T02:00:25.786Z,4.53
2022-10-03T02:01:51.438Z,4.22
2022-10-03T02:03:00.026Z,4.10
2022-10-03T02:04:14.519Z,3.65
2022-10-03T02:05:28.766Z,4.05
2022-10-03T02:06:44.043Z,4.82
2022-10-03T02:07:55.907Z,4.47
2022-10-03T02:09:27.067Z,4.20
2022-10-03T02:10:35.859Z,4.85
2022-10-03T02:11:45.394Z,3.70
2022-10-03T02:12:57.219Z,4.25
2022-10-03T02:14:21.309Z,5.25
2022-10-03T02:15:43.106Z,5.22
2022-10-03T02:17:02.927Z,4.97
2022-10-03T02:18:21.665Z,4.95
2022-10-03T02:19:29.749Z,4.93
2022-10-03T02:20:51.464Z,4.35
2022-10-03T02:21:55.500Z,4.78
2022-10-03T02:22:58.801Z,5.05
2022-10-03T02:24:22.032Z,5.00
2022-10-03T02:25:35.932Z,4.90
2022-10-03T02:27:05.179Z,4.60
2022-10-03T02:28:35.169Z,5.22
2022-10-03T02:30:13.649Z,4.78
2022-10-03T02:31:40.805Z,5.00
2022-10-03T02:32:58.113Z,5.55
2022-10-03T02:34:25.896Z,5.45
2022-10-03T02:35:37.798Z,4.70
2022-10-03T02:37:08.096Z,5.82
2022-10-03T02:38:28.052Z,4.30
2022-10-03T02:39:53.300Z,5.80
2022-10-03T02:41:13.981Z,5.85
2022-10-03T02:42:37.008Z,4.68
2022-10-03T02:44:00.276Z,4.70
2022-10-03T02:45:19.025Z,4.85
2022-10-03T02:46:58.582Z,4.45
2022-10-03T02:48:30.202Z,4.18
2022-10-03T02:50:00.205Z,5.10
2022-10-03T02:51:20.129Z,5.50
2022-10-03T02:52:30.633Z,5.28
2022-10-03T02:53:50.012Z,4.82
2022-10-03T02:55:29.111Z,4.80
2022-10-03T02:57:11.817Z,6.35
2022-10-03T02:58:45.269Z,4.65
2022-10-03T03:00:11.940Z,4.80
2022-10-03T03:01:32.331Z,6.38
2022-10-03T03:02:58.946Z,5.60
2022-10-03T03:04:25.137Z,5.97
2022-10-03T03:05:57.989Z,5.47
2022-10-03T03:07:19.780Z,5.07
2022-10-03T03:08:33.703Z,5.15
2022-10-03T03:10:33.042Z,5.65
2022-10-03T03:12:06.239Z,5.65
2022-10-03T03:13:07.783Z,6.47
2022-10-03T03:14:31.309Z,5.30
2022-10-03T03:16:14.890Z,5.85
2022-10-03T03:17:19.391Z,5.28
2022-10-03T03:18:54.359Z,6.18
2022-10-03T03:20:01.546Z,6.18
2022-10-03T03:21:20.482Z,5.80
2022-10-03T03:22:47.890Z,5.40
2022-10-03T03:24:15.742Z,5.50
2022-10-03T03:25:36.151Z,6.65
2022-10-03T03:26:47.012Z,6.82
2022-10-03T03:28:20.780Z,5.80
2022-10-03T03:29:59.094Z,6.65
2022-10-03T03:31:16.482Z,6.32
2022-10-03T03:32:31.086Z,6.38
2022-10-03T03:33:53.444Z,5.57
2022-10-03T03:35:46.592Z,5.85
2022-10-03T03:37:09.700Z,6.55
2022-10-03T03:38:28.130Z,5.85
2022-10-03T03:39:57.910Z,6.18
2022-10-03T03:41:31.576Z,7.95
2022-10-03T03:43:00.590Z,6.30
2022-10-03T03:44:37.434Z,6.03
2022-10-03T03:45:51.419Z,6.57
2022-10-03T03:47:19.296Z,6.30
2022-10-03T03:48:38.351Z,6.25
2022-10-03T03:50:14.544Z,5.90
2022-10-03T03:51:51.396Z,6.93
2022-10-03T03:53:24.026Z,6.10
2022-10-03T03:55:05.758Z,6.35
2022-10-03T03:56:42.309Z,7.07
2022-10-03T03:57:51.754Z,6.82
2022-10-03T03:59:02.583Z,6.65
2022-10-03T04:00:13.748Z,6.50
2022-10-03T04:01:35.998Z,8.10
2022-10-03T04:02:43.827Z,7.05
2022-10-03T04:04:12.980Z,6.85
2022-10-03T04:05:17.807Z,6.43
2022-10-03T04:06:56.614Z,6.82
2022-10-03T04:08:12.126Z,6.45
2022-10-03T04:09:44.430Z,6.63
2022-10-03T04:11:00.168Z,6.85
2022-10-03T04:12:14.848Z,7.00
2022-10-03T04:13:28.721Z,7.07
2022-10-03T04:14:50.107Z,6.93
2022-10-03T04:16:14.906Z,6.20
2022-10-03T04:17:53.503Z,6.80
2022-10-03T04:19:05.283Z,6.07
2022-10-03T04:20:21.673Z,6.80
2022-10-03T04:21:23.251Z,6.43
2022-10-03T04:22:41.097Z,6.82
2022-10-03T04:24:21.843Z,7.53
2022-10-03T04:25:41.083Z,7.10
2022-10-03T04:26:59.667Z,6.18
2022-10-03T04:28:27.343Z,6.85
2022-10-03T04:29:56.655Z,7.53
2022-10-03T04:31:10.424Z,7.35
2022-10-03T04:32:26.971Z,6.22
2022-10-03T04:33:49.652Z,5.85
2022-10-03T04:35:23.545Z,6.65
2022-10-03T04:36:54.265Z,7.82
2022-10-03T04:38:13.927Z,6.88
2022-10-03T04:39:24.629Z,7.43
2022-10-03T04:40:38.263Z,8.18
2022-10-03T04:41:51.162Z,6.55
2022-10-03T04:43:15.668Z,6.85
2022-10-03T04:44:44.437Z,7.80
2022-10-03T04:46:11.661Z,6.88
2022-10-03T04:47:27.445Z,7.63
2022-10-03T04:48:47.573Z,7.60
2022-10-03T04:50:08.639Z,6.25
2022-10-03T04:51:28.996Z,7.60
2022-10-03T04:52:56.739Z,6.72
2022-10-03T04:54:22.176Z,6.85
2022-10-03T04:55:41.342Z,7.03
2022-10-03T04:56:52.186Z,7.10
2022-10-03T04:58:20.294Z,6.47
2022-10-03T04:59:24.609Z,7.50
2022-10-03T05:00:48.081Z,8.13
2022-10-03T05:01:52.885Z,7.45
2022-10-03T05:03:21.097Z,7.15
2022-10-03T05:04:55.705Z,7.60
2022-10-03T05:06:06.068Z,6.53
2022-10-03T05:07:21.108Z,7.07
2022-10-03T05:08:46.738Z,6.80
2022-10-03T05:10:09.226Z,7.43
2022-10-03T05:11:28.631Z,7.85
2022-10-03T05:12:54.089Z,6.88
2022-10-03T05:14:32.749Z,6.25
2022-10-03T05:15:43.467Z,7.28
2022-10-03T05:17:03.368Z,7.13
2022-10-03T05:18:10.883Z,7.45
2022-10-03T05:19:18.629Z,7.35
2022-10-03T05:20:35.665Z,7.03
2022-10-03T05:21:42.487Z,7.57
2022-10-03T05:22:58.450Z,6.88
2022-10-03T05:24:31.053Z,7.82
2022-10-03T05:25:53.379Z,7.78
2022-10-03T05:27:27.428Z,7.68
2022-10-03T05:28:45.228Z,7.20
2022-10-03T05:30:07.830Z,6.80
2022-10-03T05:31:30.894Z,12.85
2022-10-03T05:32:44.228Z,8.23
2022-10-03T05:34:11.805Z,10.70
2022-10-03T05:35:36.437Z,8.90
2022-10-03T05:37:09.332Z,8.65
2022-10-03T05:38:26.763Z,9.27
2022-10-03T05:39:58.591Z,7.13
2022-10-03T05:41:26.351Z,8.27
2022-10-03T05:42:55.584Z,9.30
2022-10-03T05:44:26.678Z,8.43
2022-10-03T05:45:56.600Z,8.35
2022-10-03T05:46:59.757Z,8.77
2022-10-03T05:48:33.165Z,8.80
2022-10-03T05:49:50.916Z,8.10
2022-10-03T05:51:20.358Z,8.55
2022-10-03T05:52:43.572Z,8.70
2022-10-03T05:54:11.807Z,8.23
2022-10-03T05:55:51.987Z,7.20
2022-10-03T05:57:29.486Z,8.10
2022-10-03T05:58:44.680Z,8.32
2022-10-03T06:00:07.363Z,7.40
2022-10-03T06:01:59.209Z,8.30
2022-10-03T06:03:30.608Z,7.88
2022-10-03T06:04:57.219Z,6.70
2022-10-03T06:06:21.045Z,8.30
2022-10-03T06:07:58.152Z,7.50
2022-10-03T06:09:18.105Z,6.85
2022-10-03T06:10:49.610Z,6.93
2022-10-03T06:12:20.445Z,7.28
2022-10-03T06:13:45.957Z,7.15
2022-10-03T06:15:12.549Z,7.63
2022-10-03T06:16:51.338Z,6.78
2022-10-03T06:18:22.350Z,7.25
2022-10-03T06:19:45.426Z,7.30
2022-10-03T06:21:27.341Z,6.15
2022-10-03T06:23:03.585Z,7.18
2022-10-03T06:24:44.342Z,6.00
2022-10-03T06:26:28.808Z,7.35
2022-10-03T06:27:54.489Z,6.25
2022-10-03T06:29:33.272Z,6.10
2022-10-03T06:30:56.894Z,6.85
2022-10-03T06:32:22.614Z,5.93
2022-10-03T06:34:01.928Z,6.63
2022-10-03T06:35:25.135Z,6.93
2022-10-03T06:36:50.554Z,8.32
2022-10-03T06:38:10.749Z,7.85
2022-10-03T06:39:40.391Z,7.03
2022-10-03T06:41:06.773Z,8.50
2022-10-03T06:42:33.141Z,6.00
2022-10-03T06:43:54.347Z,7.65
2022-10-03T06:45:05.062Z,7.22
2022-10-03T06:46:07.692Z,6.15
2022-10-03T06:47:31.491Z,5.68
2022-10-03T06:48:58.452Z,6.25
2022-10-03T06:50:19.438Z,5.78
2022-10-03T06:51:30.499Z,6.50
2022-10-03T06:52:55.051Z,7.10
2022-10-03T06:54:34.417Z,5.80
2022-10-03T06:56:20.554Z,6.00
2022-10-03T06:57:59.862Z,7.38
2022-10-03T06:59:22.079Z,5.53
2022-10-03T07:00:49.937Z,6.45
2022-10-03T07:02:19.006Z,6.50
2022-10-03T07:03:38.761Z,6.82
2022-10-03T07:05:27.052Z,6.18
2022-10-03T07:07:05.814Z,6.63
2022-10-03T07:08:27.644Z,6.60
2022-10-03T07:09:40.656Z,6.95
2022-10-03T07:11:03.126Z,6.50
2022-10-03T07:12:23.291Z,6.03
2022-10-03T07:13:59.880Z,5.97
2022-10-03T07:15:38.039Z,6.25
2022-10-03T07:17:04.533Z,6.60
2022-10-03T07:18:48.978Z,6.28
2022-10-03T07:20:08.638Z,7.30
2022-10-03T07:21:33.496Z,5.30
2022-10-03T07:23:20.241Z,5.50
2022-10-03T07:24:46.380Z,6.38
2022-10-03T07:26:22.048Z,5.95
2022-10-03T07:27:51.370Z,6.05
2022-10-03T07:29:18.914Z,5.50
2022-10-03T07:30:21.781Z,6.25
2022-10-03T07:31:32.176Z,5.97
2022-10-03T07:33:06.959Z,5.38
2022-10-03T07:34:50.003Z,5.13
2022-10-03T07:37:04.682Z,5.38
2022-10-03T07:38:51.523Z,5.38
2022-10-03T07:40:11.204Z,4.75
2022-10-03T07:41:31.661Z,5.10
2022-10-03T07:42:44.711Z,5.25
2022-10-03T07:44:18.400Z,5.90
2022-10-03T07:45:33.802Z,5.28
2022-10-03T07:46:48.486Z,5.72
2022-10-03T07:48:37.773Z,5.40
2022-10-03T07:50:05.742Z,5.65
2022-10-03T07:51:23.900Z,5.30
2022-10-03T07:53:14.290Z,6.35
2022-10-03T07:54:36.802Z,5.80
2022-10-03T07:56:09.526Z,5.35
2022-10-03T07:57:21.825Z,5.55
2022-10-03T07:58:44.003Z,5.20
2022-10-03T08:00:10.498Z,5.75
2022-10-03T08:01:20.889Z,5.43
2022-10-03T08:02:52.779Z,4.82
2022-10-03T08:04:25.972Z,5.65
2022-10-03T08:05:54.513Z,4.72
2022-10-03T08:07:26.739Z,6.50
2022-10-03T08:08:50.266Z,5.40
2022-10-03T08:10:29.221Z,5.53
2022-10-03T08:12:01.620Z,6.80
2022-10-03T08:13:32.127Z,5.00
2022-10-03T08:14:52.632Z,5.60
2022-10-03T08:16:19.278Z,5.15
2022-10-03T08:17:57.826Z,5.03
2022-10-03T08:19:46.854Z,6.20
2022-10-03T08:20:57.980Z,5.22
2022-10-03T08:22:26.708Z,5.57
2022-10-03T08:23:47.284Z,4.82
2022-10-03T08:25:03.095Z,4.45
2022-10-03T08:26:18.231Z,5.00
2022-10-03T08:27:51.813Z,5.57
2022-10-03T08:29:29.343Z,5.22
2022-10-03T08:31:09.493Z,5.00
2022-10-03T08:32:48.979Z,5.40
2022-10-03T08:34:23.391Z,5.35
2022-10-03T08:35:42.755Z,4.50
2022-10-03T08:37:22.247Z,6.18
2022-10-03T08:39:01.889Z,4.40
2022-10-03T08:40:22.330Z,3.97
2022-10-03T08:41:30.300Z,5.78
2022-10-03T08:43:10.850Z,5.57
2022-10-03T08:44:47.721Z,5.57
2022-10-03T08:46:14.457Z,4.75
2022-10-03T08:47:46.780Z,5.15
2022-10-03T08:49:14.051Z,4.05
2022-10-03T08:50:41.820Z,4.50
2022-10-03T08:51:52.472Z,4.15
2022-10-03T08:53:32.350Z,4.10
2022-10-03T08:54:55.432Z,4.47
2022-10-03T08:56:13.689Z,4.03
2022-10-03T08:57:43.897Z,4.10
2022-10-03T08:59:13.517Z,4.00
2022-10-03T09:00:20.039Z,3.80
2022-10-03T09:01:40.443Z,4.60
2022-10-03T09:03:28.655Z,4.43
2022-10-03T09:04:37.332Z,3.92
2022-10-03T09:05:58.836Z,4.07
2022-10-03T09:07:24.891Z,4.00
2022-10-03T09:08:37.796Z,4.13
2022-10-03T09:10:20.352Z,4.45
2022-10-03T09:11:31.527Z,4.03
2022-10-03T09:13:01.726Z,3.90
2022-10-03T09:14:41.396Z,3.65
2022-10-03T09:16:20.628Z,3.78
2022-10-03T09:17:45.400Z,4.15
2022-10-03T09:19:16.669Z,3.90
2022-10-03T09:20:27.359Z,3.20
2022-10-03T09:21:44.248Z,3.90
2022-10-03T09:23:19.153Z,3.42
2022-10-03T09:24:41.809Z,3.97
2022-10-03T09:26:12.288Z,3.45
2022-10-03T09:27:30.582Z,3.58
2022-10-03T09:28:32.187Z,3.60
2022-10-03T09:30:04.184Z,3.72
2022-10-03T09:31:21.108Z,3.42
2022-10-03T09:32:47.223Z,3.40
2022-10-03T09:34:12.478Z,3.95
2022-10-03T09:35:48.195Z,3.83
2022-10-03T09:37:17.784Z,3.42
2022-10-03T09:38:31.015Z,4.00
2022-10-03T09:39:59.142Z,4.85
2022-10-03T09:41:38.268Z,3.53
2022-10-03T09:43:09.949Z,3.85
2022-10-03T09:44:23.328Z,3.70
2022-10-03T09:45:51.475Z,3.95
2022-10-03T09:47:24.002Z,3.78
2022-10-03T09:48:52.934Z,3.35
2022-10-03T09:50:32.450Z,3.33
2022-10-03T09:51:42.022Z,3.65
2022-10-03T09:53:02.607Z,2.83
2022-10-03T09:54:07.281Z,3.30
2022-10-03T09:55:30.317Z,3.20
2022-10-03T09:57:38.757Z,3.00
2022-10-03T09:59:05.342Z,3.70
2022-10-03T10:00:22.843Z,3.20
2022-10-03T10:01:40.784Z,2.78
2022-10-03T10:03:18.778Z,3.50
2022-10-03T10:04:54.189Z,3.00
2022-10-03T10:06:28.459Z,3.00
2022-10-03T10:07:51.207Z,3.57
2022-10-03T10:09:17.584Z,3.20
2022-10-03T10:11:06.755Z,3.00
2022-10-03T10:12:39.160Z,3.20
2022-10-03T10:14:12.448Z,3.30
2022-10-03T10:15:51.270Z,2.93
2022-10-03T10:17:21.987Z,3.47
2022-10-03T10:18:40.334Z,3.23
2022-10-03T10:19:51.739Z,3.20
2022-10-03T10:21:31.555Z,2.70
2022-10-03T10:23:04.387Z,2.40
2022-10-03T10:24:27.955Z,2.93
2022-10-03T10:25:36.621Z,3.37
2022-10-03T10:26:44.702Z,3.30
2022-10-03T10:28:08.463Z,2.83
2022-10-03T10:29:12.903Z,3.43
2022-10-03T10:30:38.956Z,2.80
2022-10-03T10:32:16.687Z,3.50
2022-10-03T10:34:17.853Z,3.13
2022-10-03T10:35:51.751Z,3.07
2022-10-03T10:37:27.165Z,2.30
2022-10-03T10:39:00.133Z,2.50
2022-10-03T10:40:52.718Z,2.67
2022-10-03T10:42:25.553Z,2.30
2022-10-03T10:43:57.518Z,2.80
2022-10-03T10:45:23.099Z,2.30
2022-10-03T10:46:58.303Z,2.73
2022-10-03T10:48:18.108Z,2.53
2022-10-03T10:49:58.923Z,2.60
2022-10-03T10:51:29.927Z,2.70
2022-10-03T10:53:03.466Z,2.00
2022-10-03T10:54:44.101Z,2.20
2022-10-03T10:56:18.910Z,2.20
2022-10-03T10:57:51.326Z,2.17
2022-10-03T10:59:12.452Z,2.77
2022-10-03T11:00:20.042Z,2.93
2022-10-03T11:01:58.503Z,2.27
2022-10-03T11:03:53.658Z,1.77
2022-10-03T11:05:39.445Z,3.00
2022-10-03T11:06:59.673Z,2.70
2022-10-03T11:08:29.512Z,3.20
2022-10-03T11:10:00.502Z,2.60
2022-10-03T11:11:35.913Z,1.70
2022-10-03T11:13:08.589Z,2.67
2022-10-03T11:14:31.512Z,2.67
2022-10-03T11:16:15.096Z,4.70
2022-10-03T11:17:16.654Z,3.70
2022-10-03T11:18:42.092Z,3.90
2022-10-03T11:20:21.796Z,3.60
2022-10-03T11:21:45.093Z,3.40
2022-10-03T11:22:55.553Z,3.70
2022-10-03T11:24:17.664Z,3.80
2022-10-03T11:26:00.879Z,2.00
2022-10-03T11:27:12.546Z,3.20
2022-10-03T11:29:14.442Z,2.27
2022-10-03T11:30:40.055Z,2.17
2022-10-03T11:31:41.729Z,1.50
2022-10-03T11:32:58.767Z,2.00
2022-10-03T11:34:21.671Z,1.97
2022-10-03T11:35:26.364Z,2.23
2022-10-03T11:36:53.673Z,2.10
2022-10-03T11:38:32.681Z,3.67
2022-10-03T11:40:11.844Z,4.13
2022-10-03T11:41:41.051Z,3.90
2022-10-03T11:43:05.295Z,2.50
2022-10-03T11:44:30.246Z,2.63
2022-10-03T11:45:46.163Z,1.83
2022-10-03T11:46:59.578Z,1.70
2022-10-03T11:48:39.913Z,1.50
2022-10-03T11:50:02.659Z,1.80
2022-10-03T11:51:15.552Z,2.10
2022-10-03T11:52:42.178Z,1.50
2022-10-03T11:54:31.559Z,1.87
2022-10-03T11:55:48.267Z,1.87
2022-10-03T11:56:56.375Z,1.73
2022-10-03T11:58:20.739Z,2.43
2022-10-03T11:59:31.536Z,1.57
2022-10-03T12:00:37.289Z,1.07
2022-10-03T12:02:06.145Z,1.63
2022-10-03T12:03:19.879Z,1.30
2022-10-03T12:04:45.031Z,1.40
2022-10-03T12:05:48.616Z,1.40
2022-10-03T12:07:12.060Z,1.40
2022-10-03T12:08:54.829Z,1.03
2022-10-03T12:10:33.153Z,2.00
2022-10-03T12:11:51.112Z,1.40
2022-10-03T12:12:55.570Z,1.43
2022-10-03T12:14:11.406Z,1.57
2022-10-03T12:15:38.644Z,1.10
2022-10-03T12:17:15.971Z,1.60
2022-10-03T12:18:46.843Z,1.73
2022-10-03T12:20:15.627Z,1.17
2022-10-03T12:21:24.012Z,1.47
2022-10-03T12:22:46.628Z,1.97
2022-10-03T12:24:15.571Z,1.57
2022-10-03T12:25:30.191Z,1.80
2022-10-03T12:26:47.450Z,1.07
2022-10-03T12:28:01.780Z,1.40
2022-10-03T12:29:05.096Z,1.23
2022-10-03T12:30:16.283Z,1.20
2022-10-03T12:31:40.304Z,1.10
2022-10-03T12:32:55.749Z,1.20
2022-10-03T12:34:00.117Z,1.50
2022-10-03T12:35:40.927Z,1.70
2022-10-03T12:37:14.628Z,1.30
2022-10-03T12:39:09.194Z,2.20
2022-10-03T12:40:29.966Z,1.40
2022-10-03T12:41:57.052Z,1.57
2022-10-03T12:43:18.140Z,1.70
2022-10-03T12:44:53.326Z,1.47
2022-10-03T12:46:03.340Z,1.30
2022-10-03T12:47:54.915Z,1.80
2022-10-03T12:49:06.323Z,1.40
2022-10-03T12:50:24.204Z,1.33
2022-10-03T12:51:55.471Z,3.67
2022-10-03T12:53:15.205Z,1.30
2022-10-03T12:55:00.528Z,1.80
2022-10-03T12:56:08.189Z,1.50
2022-10-03T12:57:39.595Z,1.40
2022-10-03T12:58:52.707Z,1.40
2022-10-03T13:00:09.581Z,1.10
2022-10-03T13:01:21.406Z,1.53
2022-10-03T13:02:41.206Z,1.40
2022-10-03T13:03:51.235Z,1.77
2022-10-03T13:05:14.529Z,1.40
2022-10-03T13:06:51.100Z,1.53
2022-10-03T13:08:17.967Z,1.50
2022-10-03T13:09:37.654Z,1.40
2022-10-03T13:10:41.831Z,1.77
2022-10-03T13:12:07.405Z,1.30
2022-10-03T13:13:27.807Z,1.53
2022-10-03T13:15:03.415Z,1.20
2022-10-03T13:16:23.586Z,1.37
2022-10-03T13:17:52.670Z,1.77
2022-10-03T13:19:05.611Z,1.30
2022-10-03T13:20:23.644Z,1.27
2022-10-03T13:23:10.907Z,1.40
2022-10-03T13:24:23.607Z,1.63
2022-10-03T13:25:45.283Z,1.60
2022-10-03T13:27:17.048Z,1.63
2022-10-03T13:28:45.116Z,1.30
2022-10-03T13:29:53.468Z,1.60
2022-10-03T13:31:10.352Z,1.50
2022-10-03T13:32:46.570Z,1.33
2022-10-03T13:33:54.208Z,1.20
2022-10-03T13:35:54.351Z,1.17
2022-10-03T13:37:06.568Z,1.40
2022-10-03T13:38:47.151Z,1.30
2022-10-03T13:39:53.121Z,1.20
2022-10-03T13:41:14.183Z,1.37
2022-10-03T13:42:53.631Z,1.00
2022-10-03T13:43:57.547Z,1.13
2022-10-03T13:45:14.335Z,1.30
2022-10-03T13:46:37.409Z,1.47
2022-10-03T13:47:55.706Z,1.20
2022-10-03T13:49:02.349Z,1.60
2022-10-03T13:50:15.231Z,1.57
2022-10-03T13:51:34.595Z,1.27
2022-10-03T13:52:42.426Z,1.30
2022-10-03T13:54:06.885Z,1.47
2022-10-03T13:55:19.637Z,1.27
2022-10-03T13:56:54.234Z,1.00
2022-10-03T13:58:10.804Z,1.10
2022-10-03T13:59:34.320Z,1.37
2022-10-03T14:01:07.600Z,1.30
2022-10-03T14:02:26.458Z,1.13
2022-10-03T14:03:44.746Z,1.20
2022-10-03T14:05:10.260Z,1.07
2022-10-03T14:06:37.592Z,1.57
2022-10-03T14:08:08.241Z,1.43
2022-10-03T14:09:21.805Z,1.80
2022-10-03T14:10:35.771Z,1.33
2022-10-03T14:11:56.905Z,1.13
2022-10-03T14:13:37.377Z,1.43
2022-10-03T14:14:59.664Z,1.80
2022-10-03T14:16:13.351Z,1.37
2022-10-03T14:17:59.355Z,1.60
2022-10-03T14:19:19.154Z,2.07
2022-10-03T14:20:40.988Z,1.30
2022-10-03T14:22:21.207Z,1.50
2022-10-03T14:23:25.963Z,1.70
2022-10-03T14:24:49.095Z,1.47
2022-10-03T14:26:15.671Z,2.07
2022-10-03T14:27:20.478Z,1.40
2022-10-03T14:28:37.464Z,1.63
2022-10-03T14:30:10.097Z,1.53
2022-10-03T14:31:25.640Z,1.47
2022-10-03T14:32:48.228Z,1.10
2022-10-03T14:34:07.839Z,1.57
2022-10-03T14:35:24.606Z,1.97
2022-10-03T14:36:38.457Z,1.20
2022-10-03T14:38:06.435Z,1.40
2022-10-03T14:39:14.863Z,1.70
2022-10-03T14:40:35.616Z,1.60
2022-10-03T14:41:49.834Z,1.87
2022-10-03T14:43:24.272Z,1.60
2022-10-03T14:44:42.225Z,1.30
2022-10-03T14:45:56.424Z,1.60
2022-10-03T14:47:02.876Z,1.70
2022-10-03T14:48:11.717Z,1.10
2022-10-03T14:49:48.562Z,1.30
2022-10-03T14:50:48.787Z,1.23
2022-10-03T14:52:01.671Z,1.40
2022-10-03T14:53:06.642Z,1.67
2022-10-03T14:54:22.749Z,1.80
2022-10-03T14:55:30.248Z,1.57
2022-10-03T14:56:41.239Z,1.20
2022-10-03T14:58:08.888Z,1.97
2022-10-03T14:59:35.369Z,1.50
2022-10-03T15:00:45.129Z,1.37
2022-10-03T15:01:55.889Z,3.27
2022-10-03T15:02:57.699Z,1.90
2022-10-03T15:04:13.300Z,1.70
2022-10-03T15:05:24.944Z,1.63
2022-10-03T15:06:45.088Z,1.30
2022-10-03T15:07:47.645Z,1.80
2022-10-03T15:08:54.095Z,1.50
2022-10-03T15:09:58.497Z,1.70
2022-10-03T15:11:01.454Z,1.43
2022-10-03T15:12:24.635Z,1.40
2022-10-03T15:13:33.595Z,1.60
2022-10-03T15:14:39.466Z,1.73
2022-10-03T15:15:43.038Z,1.90
2022-10-03T15:16:49.491Z,1.70
2022-10-03T15:18:20.814Z,1.97
2022-10-03T15:19:33.547Z,1.33
2022-10-03T15:20:39.004Z,1.60
2022-10-03T15:21:47.351Z,1.40
2022-10-03T15:22:55.143Z,1.70
2022-10-03T15:24:02.468Z,2.10
2022-10-03T15:25:28.375Z,7.07
2022-10-03T15:26:35.263Z,2.90
2022-10-03T15:27:41.556Z,5.97
2022-10-03T15:28:51.551Z,2.00
2022-10-03T15:29:57.221Z,2.03
2022-10-03T15:31:09.485Z,1.40
2022-10-03T15:32:37.948Z,1.60
2022-10-03T15:33:41.784Z,1.40
2022-10-03T15:34:49.140Z,1.80
2022-10-03T15:35:55.317Z,1.27
2022-10-03T15:37:07.115Z,1.53
2022-10-03T15:38:17.849Z,2.00
2022-10-03T15:39:33.436Z,1.47
2022-10-03T15:40:39.335Z,1.67
2022-10-03T15:42:10.154Z,1.87
2022-10-03T15:43:23.906Z,1.67
2022-10-03T15:44:38.903Z,1.50
2022-10-03T15:45:41.126Z,1.50
2022-10-03T15:46:44.815Z,1.70
2022-10-03T15:47:50.006Z,1.80
2022-10-03T15:48:54.143Z,1.90
2022-10-03T15:50:17.458Z,1.90
2022-10-03T15:51:24.054Z,1.93
2022-10-03T15:52:41.242Z,1.40
2022-10-03T15:53:43.284Z,1.67
2022-10-03T15:55:10.985Z,1.90
2022-10-03T15:56:27.414Z,1.73
2022-10-03T15:57:35.878Z,1.93
2022-10-03T15:58:44.922Z,1.80
2022-10-03T15:59:52.794Z,1.90
2022-10-03T16:01:26.534Z,2.50
2022-10-03T16:02:49.742Z,2.20
2022-10-03T16:04:03.273Z,2.47
2022-10-03T16:05:13.192Z,1.80
2022-10-03T16:06:24.423Z,1.80
2022-10-03T16:07:42.793Z,2.60
2022-10-03T16:09:00.209Z,1.80
2022-10-03T16:10:20.904Z,1.73
2022-10-03T16:11:27.685Z,2.00
2022-10-03T16:12:44.881Z,2.10
2022-10-03T16:13:57.018Z,1.97
2022-10-03T16:15:15.057Z,2.50
2022-10-03T16:16:35.059Z,1.73
2022-10-03T16:17:59.513Z,2.23
2022-10-03T16:19:18.783Z,2.63
2022-10-03T16:20:41.463Z,2.13
2022-10-03T16:21:47.678Z,2.20
2022-10-03T16:23:04.241Z,2.00
2022-10-03T16:24:08.375Z,2.30
2022-10-03T16:25:18.684Z,2.20
2022-10-03T16:26:26.292Z,2.40
2022-10-03T16:27:31.844Z,1.80
2022-10-03T16:28:49.869Z,2.07
2022-10-03T16:30:02.233Z,2.60
2022-10-03T16:31:11.258Z,2.43
2022-10-03T16:32:29.629Z,2.40
2022-10-03T16:33:37.476Z,5.03
2022-10-03T16:34:44.033Z,2.40
2022-10-03T16:35:52.468Z,2.37
2022-10-03T16:36:54.852Z,2.37
2022-10-03T16:37:57.006Z,3.10
2022-10-03T16:39:01.590Z,2.07
2022-10-03T16:40:06.636Z,2.30
2022-10-03T16:41:19.233Z,2.03
2022-10-03T16:42:25.692Z,2.13
2022-10-03T16:43:30.949Z,2.17
2022-10-03T16:44:47.911Z,2.63
2022-10-03T16:45:50.237Z,2.10
2022-10-03T16:46:55.230Z,1.67
2022-10-03T16:48:19.377Z,2.43
2022-10-03T16:50:03.237Z,2.00
2022-10-03T16:51:13.893Z,2.40
2022-10-03T16:52:19.215Z,1.37
2022-10-03T16:53:22.328Z,1.73
2022-10-03T16:54:24.416Z,2.43
2022-10-03T16:55:30.954Z,2.00
2022-10-03T16:56:39.542Z,1.50
2022-10-03T16:57:49.623Z,3.93
2022-10-03T16:58:58.593Z,2.40
2022-10-03T17:00:06.414Z,2.10
2022-10-03T17:01:27.270Z,1.80
2022-10-03T17:02:30.640Z,1.30
2022-10-03T17:03:47.153Z,3.40
2022-10-03T17:04:53.378Z,2.60
2022-10-03T17:06:03.111Z,2.57
2022-10-03T17:07:18.698Z,2.27
2022-10-03T17:08:41.206Z,1.83
2022-10-03T17:09:50.171Z,2.30
2022-10-03T17:11:04.763Z,1.83
2022-10-03T17:12:14.279Z,1.80
2022-10-03T17:13:21.104Z,2.17
2022-10-03T17:14:28.137Z,1.47
2022-10-03T17:15:34.419Z,1.60
2022-10-03T17:16:51.154Z,2.05
2022-10-03T17:17:59.822Z,1.60
2022-10-03T17:19:14.789Z,1.60
2022-10-03T17:20:55.187Z,1.63
2022-10-03T17:22:22.855Z,2.37
2022-10-03T17:23:35.922Z,1.83
2022-10-03T17:25:00.991Z,2.90
2022-10-03T17:26:12.138Z,2.00
2022-10-03T17:27:25.543Z,2.57
2022-10-03T17:28:44.557Z,3.00
2022-10-03T17:30:03.379Z,1.90
2022-10-03T17:31:15.261Z,2.50
2022-10-03T17:32:35.411Z,2.23
2022-10-03T17:34:18.066Z,2.30
2022-10-03T17:35:31.011Z,2.20
2022-10-03T17:36:53.720Z,1.80
2022-10-03T17:40:06.941Z,2.33
2022-10-03T17:41:21.246Z,1.95
2022-10-03T17:42:44.963Z,1.97
2022-10-03T17:44:24.392Z,2.33
2022-10-03T17:45:36.874Z,2.35
2022-10-03T17:46:51.067Z,2.45
2022-10-03T17:48:16.257Z,5.03
2022-10-03T17:49:42.608Z,5.38
2022-10-03T17:50:53.137Z,5.40
2022-10-03T17:51:56.101Z,4.32
2022-10-03T17:53:00.054Z,3.80
2022-10-03T17:54:14.008Z,3.00
2022-10-03T17:55:22.233Z,3.53
2022-10-03T17:56:25.866Z,3.38
2022-10-03T17:57:29.144Z,3.15
2022-10-03T17:58:32.949Z,3.65
2022-10-03T17:59:46.695Z,3.35
2022-10-03T18:01:01.209Z,2.72
2022-10-03T18:02:25.986Z,6.20
2022-10-03T18:03:41.951Z,6.00
2022-10-03T18:04:47.244Z,5.10
2022-10-03T18:05:54.563Z,4.80
2022-10-03T18:07:01.576Z,4.13
2022-10-03T18:08:08.103Z,4.15
2022-10-03T18:09:23.696Z,4.45
2022-10-03T18:10:36.322Z,3.33
2022-10-03T18:11:40.247Z,4.50
2022-10-03T18:12:43.219Z,3.75
2022-10-03T18:13:50.052Z,3.72
2022-10-03T18:15:23.496Z,5.20
2022-10-03T18:16:35.030Z,4.55